createdAt,value
2023-05-10T00:00:55.050Z,37.30
2023-05-10T00:03:23.298Z,37.40
2023-05-10T00:05:51.372Z,37.40
2023-05-10T00:08:19.336Z,37.50
2023-05-10T00:10:48.683Z,37.60
2023-05-10T00:13:16.726Z,37.60
2023-05-10T00:15:44.685Z,37.70
2023-05-10T00:18:12.686Z,37.80
2023-05-10T00:20:40.684Z,37.70
2023-05-10T00:23:08.731Z,37.80
2023-05-10T00:25:36.751Z,37.80
2023-05-10T00:28:06.373Z,37.90
2023-05-10T00:30:34.352Z,38.00
2023-05-10T00:33:03.904Z,37.90
2023-05-10T00:35:31.920Z,38.20
2023-05-10T00:37:59.850Z,38.10
2023-05-10T00:40:28.165Z,38.10
2023-05-10T00:43:01.498Z,38.20
2023-05-10T00:45:31.484Z,38.20
2023-05-10T00:48:00.758Z,38.20
2023-05-10T00:50:28.889Z,38.30
2023-05-10T00:52:57.186Z,38.30
2023-05-10T00:55:25.563Z,38.30
2023-05-10T00:57:55.142Z,38.40
2023-05-10T01:00:23.345Z,38.40
2023-05-10T01:02:53.059Z,38.40
2023-05-10T01:05:21.481Z,38.40
2023-05-10T01:07:49.518Z,38.50
2023-05-10T01:10:17.902Z,38.50
2023-05-10T01:12:48.824Z,38.50
2023-05-10T01:15:18.938Z,38.70
2023-05-10T01:17:48.547Z,38.80
2023-05-10T01:20:18.462Z,38.80
2023-05-10T01:23:20.800Z,38.80
2023-05-10T01:26:16.816Z,39.20
2023-05-10T01:29:13.753Z,39.20
2023-05-10T01:32:15.744Z,39.00
2023-05-10T01:34:56.554Z,39.10
2023-05-10T01:37:33.818Z,38.90
2023-05-10T01:40:09.204Z,38.90
2023-05-10T01:42:45.575Z,39.20
2023-05-10T01:45:22.297Z,39.10
2023-05-10T01:48:06.455Z,39.10
2023-05-10T01:50:36.617Z,39.40
2023-05-10T01:53:09.038Z,39.20
2023-05-10T01:55:45.199Z,39.20
2023-05-10T01:58:17.611Z,39.40
2023-05-10T02:00:48.488Z,39.40
2023-05-10T02:03:20.178Z,39.40
2023-05-10T02:05:50.741Z,39.50
2023-05-10T02:08:21.106Z,39.60
2023-05-10T02:10:51.487Z,39.60
2023-05-10T02:13:21.046Z,39.50
2023-05-10T02:15:50.928Z,39.60
2023-05-10T02:18:20.528Z,39.80
2023-05-10T02:20:49.106Z,39.70
2023-05-10T02:23:19.999Z,39.90
2023-05-10T02:25:50.520Z,40.00
2023-05-10T02:28:20.239Z,40.10
2023-05-10T02:30:49.668Z,39.90
2023-05-10T02:33:20.309Z,40.30
2023-05-10T02:35:48.985Z,40.20
2023-05-10T02:38:18.049Z,40.00
2023-05-10T02:40:47.971Z,40.10
2023-05-10T02:43:19.254Z,40.20
2023-05-10T02:45:49.788Z,40.30
2023-05-10T02:48:19.897Z,40.20
2023-05-10T02:50:52.291Z,40.10
2023-05-10T02:53:25.654Z,40.20
2023-05-10T02:55:59.928Z,40.30
2023-05-10T02:58:27.941Z,40.30
2023-05-10T03:00:56.176Z,40.30
2023-05-10T03:03:25.550Z,40.20
2023-05-10T03:05:56.614Z,40.30
2023-05-10T03:08:25.463Z,40.20
2023-05-10T03:11:13.579Z,40.20
2023-05-10T03:13:51.907Z,40.30
2023-05-10T03:16:29.317Z,40.50
2023-05-10T03:19:09.038Z,40.50
2023-05-10T03:21:40.739Z,40.60
2023-05-10T03:24:12.771Z,40.40
2023-05-10T03:26:42.229Z,40.50
2023-05-10T03:29:16.020Z,40.50
2023-05-10T03:31:44.569Z,40.70
2023-05-10T03:34:13.930Z,40.70
2023-05-10T03:36:41.889Z,40.80
2023-05-10T03:39:09.984Z,40.70
2023-05-10T03:41:38.790Z,40.70
2023-05-10T03:44:06.772Z,40.70
2023-05-10T03:46:34.816Z,40.80
2023-05-10T03:49:04.825Z,40.90
2023-05-10T03:51:34.222Z,41.00
2023-05-10T03:54:02.286Z,40.90
2023-05-10T03:56:31.036Z,40.90
2023-05-10T03:58:59.090Z,41.10
2023-05-10T04:01:27.295Z,41.70
2023-05-10T04:03:55.387Z,41.10
2023-05-10T04:06:23.465Z,41.20
2023-05-10T04:08:54.648Z,41.20
2023-05-10T04:11:23.606Z,41.30
2023-05-10T04:13:51.555Z,41.20
2023-05-10T04:16:19.582Z,41.40
2023-05-10T04:18:47.584Z,41.40
2023-05-10T04:21:16.071Z,41.40
2023-05-10T04:23:44.023Z,41.50
2023-05-10T04:26:13.323Z,41.60
2023-05-10T04:28:41.326Z,41.70
2023-05-10T04:31:11.797Z,42.30
2023-05-10T04:33:39.840Z,41.80
2023-05-10T04:36:08.463Z,41.70
2023-05-10T04:38:36.659Z,41.80
2023-05-10T04:41:09.053Z,41.80
2023-05-10T04:43:39.366Z,41.90
2023-05-10T04:46:08.103Z,41.90
2023-05-10T04:48:36.164Z,42.00
2023-05-10T04:51:04.859Z,42.00
2023-05-10T04:53:32.961Z,42.10
2023-05-10T04:56:00.973Z,42.10
2023-05-10T04:58:28.941Z,42.10
2023-05-10T05:00:58.416Z,42.10
2023-05-10T05:03:26.521Z,42.20
2023-05-10T05:05:54.496Z,42.10
2023-05-10T05:08:22.474Z,42.10
2023-05-10T05:10:51.123Z,42.10
2023-05-10T05:13:19.428Z,42.10
2023-05-10T05:15:47.432Z,42.20
2023-05-10T05:18:16.735Z,42.20
2023-05-10T05:20:44.695Z,42.30
2023-05-10T05:23:12.624Z,42.20
2023-05-10T05:25:40.571Z,42.10
2023-05-10T05:28:08.536Z,42.20
2023-05-10T05:30:36.485Z,42.20
2023-05-10T05:33:04.705Z,42.40
2023-05-10T05:35:34.027Z,42.20
2023-05-10T05:38:02.000Z,42.30
2023-05-10T05:40:29.950Z,42.20
2023-05-10T05:42:57.959Z,42.30
2023-05-10T05:45:25.933Z,42.20
2023-05-10T05:47:53.897Z,42.20
2023-05-10T05:50:22.152Z,42.30
2023-05-10T05:52:52.028Z,42.30
2023-05-10T05:55:20.158Z,42.30
2023-05-10T05:57:48.127Z,42.20
2023-05-10T06:00:17.286Z,42.30
2023-05-10T06:02:47.259Z,42.40
2023-05-10T06:05:15.446Z,42.50
2023-05-10T06:07:43.804Z,42.60
2023-05-10T06:10:13.291Z,42.70
2023-05-10T06:12:41.575Z,42.70
2023-05-10T06:15:11.641Z,42.70
2023-05-10T06:17:40.045Z,42.60
2023-05-10T06:20:10.160Z,42.50
2023-05-10T06:22:38.162Z,42.70
2023-05-10T06:25:07.391Z,42.50
2023-05-10T06:27:36.891Z,42.50
2023-05-10T06:30:12.815Z,42.50
2023-05-10T06:32:41.663Z,42.40
2023-05-10T06:35:10.994Z,42.30
2023-05-10T06:37:39.030Z,42.30
2023-05-10T06:40:10.403Z,42.30
2023-05-10T06:42:39.860Z,42.30
2023-05-10T06:45:10.121Z,42.10
2023-05-10T06:47:38.961Z,42.20
2023-05-10T06:50:09.026Z,42.10
2023-05-10T06:52:37.158Z,42.00
2023-05-10T06:55:06.293Z,42.00
2023-05-10T06:57:34.436Z,42.00
2023-05-10T07:00:06.069Z,41.90
2023-05-10T07:02:34.394Z,42.00
2023-05-10T07:05:03.579Z,42.00
2023-05-10T07:07:32.207Z,42.00
2023-05-10T07:10:00.417Z,42.00
2023-05-10T07:12:29.400Z,42.00
2023-05-10T07:14:57.474Z,42.00
2023-05-10T07:17:26.985Z,41.90
2023-05-10T07:19:55.013Z,42.00
2023-05-10T07:22:23.011Z,42.00
2023-05-10T07:24:51.007Z,42.00
2023-05-10T07:27:19.001Z,42.10
2023-05-10T07:29:46.982Z,42.10
2023-05-10T07:32:15.042Z,42.10
2023-05-10T07:34:44.410Z,42.10
2023-05-10T07:37:12.458Z,42.00
2023-05-10T07:39:40.496Z,41.90
2023-05-10T07:42:09.247Z,41.90
2023-05-10T07:44:37.246Z,41.90
2023-05-10T07:47:05.388Z,42.00
2023-05-10T07:49:33.400Z,42.00
2023-05-10T07:52:02.706Z,41.80
2023-05-10T07:54:30.788Z,41.90
2023-05-10T07:56:58.729Z,41.90
2023-05-10T07:59:26.764Z,41.80
2023-05-10T08:01:54.767Z,41.60
2023-05-10T08:04:23.153Z,41.50
2023-05-10T08:06:51.393Z,41.30
2023-05-10T08:09:24.669Z,41.30
2023-05-10T08:11:52.829Z,41.20
2023-05-10T08:14:21.131Z,41.00
2023-05-10T08:16:49.225Z,41.00
2023-05-10T08:19:19.936Z,40.90
2023-05-10T08:21:48.006Z,40.80
2023-05-10T08:24:16.400Z,40.80
2023-05-10T08:26:45.721Z,40.60
2023-05-10T08:29:13.854Z,40.60
2023-05-10T08:31:41.926Z,40.60
2023-05-10T08:34:09.929Z,40.60
2023-05-10T08:36:37.928Z,40.60
2023-05-10T08:39:11.228Z,40.60
2023-05-10T08:41:47.237Z,40.50
2023-05-10T08:44:15.770Z,40.60
2023-05-10T08:46:48.741Z,40.50
2023-05-10T08:49:20.112Z,40.60
2023-05-10T08:51:54.161Z,40.50
2023-05-10T08:54:23.213Z,40.40
2023-05-10T08:56:52.656Z,40.30
2023-05-10T08:59:20.660Z,40.40
2023-05-10T09:01:50.371Z,40.40
2023-05-10T09:04:18.552Z,40.40
2023-05-10T09:06:46.805Z,40.40
2023-05-10T09:09:15.159Z,40.40
2023-05-10T09:11:43.187Z,40.40
2023-05-10T09:14:14.498Z,40.40
2023-05-10T09:16:43.087Z,40.40
2023-05-10T09:19:11.415Z,40.40
2023-05-10T09:21:40.158Z,40.30
2023-05-10T09:24:09.791Z,40.30
2023-05-10T09:26:48.148Z,40.40
2023-05-10T09:29:18.052Z,40.40
2023-05-10T09:31:49.222Z,40.30
2023-05-10T09:34:22.476Z,40.30
2023-05-10T09:36:56.200Z,40.30
2023-05-10T09:39:33.786Z,40.30
2023-05-10T09:42:05.164Z,40.40
2023-05-10T09:44:35.102Z,40.20
2023-05-10T09:47:03.448Z,40.20
2023-05-10T09:49:34.115Z,40.20
2023-05-10T09:52:04.659Z,40.20
2023-05-10T09:54:33.049Z,40.30
2023-05-10T09:57:01.681Z,40.30
2023-05-10T09:59:30.476Z,40.30
2023-05-10T10:02:02.030Z,40.30
2023-05-10T10:04:30.557Z,40.40
2023-05-10T10:07:06.668Z,40.40
2023-05-10T10:09:36.346Z,40.50
2023-05-10T10:12:05.551Z,40.50
2023-05-10T10:14:33.660Z,40.60
2023-05-10T10:17:08.352Z,40.50
2023-05-10T10:19:37.863Z,40.50
2023-05-10T10:22:06.989Z,40.60
2023-05-10T10:24:35.465Z,40.60
2023-05-10T10:27:16.815Z,40.60
2023-05-10T10:29:58.872Z,40.70
2023-05-10T10:32:38.078Z,40.70
2023-05-10T10:35:07.050Z,40.60
2023-05-10T10:37:47.144Z,40.60
2023-05-10T10:40:29.882Z,40.80
2023-05-10T10:43:00.266Z,40.80
2023-05-10T10:45:28.434Z,40.60
2023-05-10T10:48:22.573Z,40.60
2023-05-10T10:50:59.519Z,40.80
2023-05-10T10:53:29.859Z,40.90
2023-05-10T10:56:10.210Z,40.80
2023-05-10T10:58:39.769Z,40.90
2023-05-10T11:01:17.202Z,40.70
2023-05-10T11:04:22.008Z,40.90
2023-05-10T11:06:50.059Z,41.10
2023-05-10T11:09:18.516Z,40.80
2023-05-10T11:11:56.171Z,40.80
2023-05-10T11:14:24.725Z,41.00
2023-05-10T11:16:53.777Z,40.80
2023-05-10T11:19:23.117Z,40.90
2023-05-10T11:21:52.638Z,41.00
2023-05-10T11:24:23.884Z,41.00
2023-05-10T11:26:53.078Z,41.10
2023-05-10T11:29:21.204Z,41.70
2023-05-10T11:31:51.096Z,41.10
2023-05-10T11:34:27.324Z,41.10
2023-05-10T11:36:56.980Z,41.40
2023-05-10T11:39:29.437Z,41.20
2023-05-10T11:41:58.029Z,41.30
2023-05-10T11:44:31.313Z,41.20
2023-05-10T11:47:01.074Z,42.00
2023-05-10T11:49:30.698Z,42.10
2023-05-10T11:52:07.291Z,41.60
2023-05-10T11:54:36.265Z,42.00
2023-05-10T11:57:04.553Z,41.60
2023-05-10T11:59:32.552Z,41.70
2023-05-10T12:02:00.690Z,41.70
2023-05-10T12:04:31.220Z,41.80
2023-05-10T12:06:59.612Z,42.00
2023-05-10T12:09:42.516Z,41.90
2023-05-10T12:12:12.442Z,42.00
2023-05-10T12:14:40.409Z,42.30
2023-05-10T12:17:08.854Z,42.20
2023-05-10T12:19:41.774Z,42.30
2023-05-10T12:22:09.828Z,42.70
2023-05-10T12:24:38.930Z,42.50
2023-05-10T12:27:09.012Z,42.80
2023-05-10T12:29:37.054Z,42.90
2023-05-10T12:32:05.213Z,42.90
2023-05-10T12:34:36.234Z,43.10
2023-05-10T12:37:06.243Z,43.30
2023-05-10T12:39:42.327Z,43.50
2023-05-10T12:42:10.563Z,43.90
2023-05-10T12:44:38.744Z,43.60
2023-05-10T12:47:06.814Z,43.90
2023-05-10T12:49:34.960Z,43.90
2023-05-10T12:52:03.080Z,43.90
2023-05-10T12:54:32.359Z,44.00
2023-05-10T12:57:00.302Z,44.30
2023-05-10T12:59:28.236Z,44.30
2023-05-10T13:01:56.208Z,44.30
2023-05-10T13:04:24.174Z,44.40
2023-05-10T13:06:52.329Z,44.50
2023-05-10T13:09:21.408Z,44.60
2023-05-10T13:11:51.271Z,44.70
2023-05-10T13:14:21.308Z,44.80
2023-05-10T13:16:49.437Z,44.80
2023-05-10T13:19:18.979Z,45.00
2023-05-10T13:21:46.986Z,45.20
2023-05-10T13:24:15.124Z,45.10
2023-05-10T13:26:43.179Z,45.10
2023-05-10T13:29:12.514Z,45.20
2023-05-10T13:31:40.596Z,45.20
2023-05-10T13:34:08.644Z,45.10
2023-05-10T13:36:36.610Z,45.20
2023-05-10T13:39:06.255Z,45.30
2023-05-10T13:41:34.262Z,45.30
2023-05-10T13:44:02.210Z,45.50
2023-05-10T13:46:31.691Z,45.50
2023-05-10T13:48:59.672Z,45.60
2023-05-10T13:51:27.632Z,45.60
2023-05-10T13:53:55.653Z,45.70
2023-05-10T13:56:23.611Z,45.70
2023-05-10T13:58:52.182Z,45.90
2023-05-10T14:01:20.217Z,45.90
2023-05-10T14:03:49.699Z,45.90
2023-05-10T14:06:18.248Z,46.10
2023-05-10T14:08:46.592Z,46.00
2023-05-10T14:11:14.587Z,46.00
2023-05-10T14:13:42.958Z,46.00
2023-05-10T14:16:10.963Z,46.10
2023-05-10T14:18:39.047Z,46.20
2023-05-10T14:21:08.351Z,46.20
2023-05-10T14:23:36.284Z,46.40
2023-05-10T14:26:04.730Z,46.30
2023-05-10T14:28:33.679Z,46.30
2023-05-10T14:31:01.779Z,46.40
2023-05-10T14:33:29.824Z,46.30
2023-05-10T14:35:58.516Z,46.50
2023-05-10T14:38:27.902Z,46.50
2023-05-10T14:40:55.877Z,46.60
2023-05-10T14:43:23.856Z,46.60
2023-05-10T14:45:51.904Z,46.60
2023-05-10T14:48:19.881Z,46.60
2023-05-10T14:50:47.973Z,46.70
2023-05-10T14:53:15.912Z,46.60
2023-05-10T14:55:45.263Z,46.70
2023-05-10T14:58:13.211Z,46.80
2023-05-10T15:00:42.324Z,46.80
2023-05-10T15:03:10.716Z,46.80
2023-05-10T15:05:39.342Z,46.80
2023-05-10T15:08:07.400Z,46.80
2023-05-10T15:10:36.025Z,46.80
2023-05-10T15:13:06.054Z,46.80
2023-05-10T15:15:34.294Z,46.90
2023-05-10T15:18:02.439Z,46.80
2023-05-10T15:20:30.520Z,46.90
2023-05-10T15:22:58.457Z,47.00
2023-05-10T15:25:26.973Z,47.10
2023-05-10T15:27:54.944Z,47.10
2023-05-10T15:30:24.539Z,47.20
2023-05-10T15:32:52.673Z,47.40
2023-05-10T15:35:20.803Z,47.30
2023-05-10T15:37:50.265Z,47.30
2023-05-10T15:40:18.675Z,47.40
2023-05-10T15:42:46.698Z,47.40
2023-05-10T15:45:16.219Z,47.40
2023-05-10T15:47:46.386Z,47.40
2023-05-10T15:50:14.438Z,47.50
2023-05-10T15:52:42.510Z,47.40
2023-05-10T15:55:13.086Z,47.50
2023-05-10T15:57:42.374Z,47.50
2023-05-10T16:00:12.740Z,47.50
2023-05-10T16:02:41.222Z,47.60
2023-05-10T16:05:11.841Z,47.50
2023-05-10T16:07:40.337Z,47.90
2023-05-10T16:10:11.202Z,47.60
2023-05-10T16:12:39.620Z,47.70
2023-05-10T16:15:09.642Z,47.60
2023-05-10T16:17:37.772Z,47.70
2023-05-10T16:20:10.310Z,47.70
2023-05-10T16:22:38.372Z,47.80
2023-05-10T16:25:07.696Z,47.70
2023-05-10T16:27:35.646Z,47.80
2023-05-10T16:30:03.964Z,47.70
2023-05-10T16:32:31.975Z,47.90
2023-05-10T16:35:00.383Z,47.90
2023-05-10T16:37:29.771Z,48.00
2023-05-10T16:39:57.812Z,48.10
2023-05-10T16:42:26.114Z,48.10
2023-05-10T16:44:55.184Z,48.10
2023-05-10T16:47:23.215Z,48.20
2023-05-10T16:49:51.208Z,48.10
2023-05-10T16:52:19.164Z,48.20
2023-05-10T16:54:48.466Z,48.20
2023-05-10T16:57:16.491Z,48.30
2023-05-10T16:59:44.471Z,48.30
2023-05-10T17:02:12.516Z,48.30
2023-05-10T17:04:40.600Z,48.30
2023-05-10T17:07:08.664Z,48.30
2023-05-10T17:09:36.640Z,48.40
2023-05-10T17:12:06.160Z,48.40
2023-05-10T17:14:34.154Z,48.50
2023-05-10T17:17:02.646Z,48.60
2023-05-10T17:19:30.931Z,48.50
2023-05-10T17:21:58.915Z,48.60
2023-05-10T17:24:29.539Z,48.60
2023-05-10T17:27:00.235Z,48.60
2023-05-10T17:29:31.920Z,48.60
2023-05-10T17:32:00.200Z,48.80
2023-05-10T17:34:28.279Z,48.70
2023-05-10T17:36:56.333Z,48.80
2023-05-10T17:39:24.281Z,48.80
2023-05-10T17:41:52.383Z,48.90
2023-05-10T17:44:20.507Z,48.90
2023-05-10T17:46:49.826Z,48.90
2023-05-10T17:49:17.996Z,49.00
2023-05-10T17:51:47.958Z,49.00
2023-05-10T17:54:16.052Z,49.10
2023-05-10T17:56:44.211Z,49.10
2023-05-10T17:59:12.285Z,49.10
2023-05-10T18:01:41.459Z,49.10
2023-05-10T18:04:11.016Z,49.20
2023-05-10T18:06:39.180Z,49.30
2023-05-10T18:09:07.456Z,49.30
2023-05-10T18:11:36.609Z,49.20
2023-05-10T18:14:04.882Z,49.30
2023-05-10T18:16:32.969Z,49.30
2023-05-10T18:19:01.305Z,49.30
2023-05-10T18:21:31.298Z,49.20
2023-05-10T18:23:59.329Z,49.40
2023-05-10T18:26:27.757Z,49.40
2023-05-10T18:28:55.798Z,49.40
2023-05-10T18:31:23.985Z,49.40
2023-05-10T18:33:52.273Z,49.40
2023-05-10T18:36:20.331Z,49.50
2023-05-10T18:38:49.790Z,49.50
2023-05-10T18:41:18.653Z,49.60
2023-05-10T18:43:46.612Z,49.60
2023-05-10T18:46:15.007Z,49.50
2023-05-10T18:48:43.069Z,49.60
2023-05-10T18:51:12.475Z,49.60
2023-05-10T18:53:40.589Z,49.60
2023-05-10T18:56:10.058Z,49.70
2023-05-10T18:58:38.428Z,49.70
2023-05-10T19:01:06.388Z,49.60
2023-05-10T19:03:34.338Z,49.60
2023-05-10T19:06:02.308Z,49.60
2023-05-10T19:08:30.468Z,49.70
2023-05-10T19:10:58.458Z,49.70
2023-05-10T19:13:28.839Z,49.70
2023-05-10T19:16:06.989Z,49.80
2023-05-10T19:18:35.109Z,50.10
2023-05-10T19:21:04.639Z,49.70
2023-05-10T19:23:33.751Z,49.70
2023-05-10T19:26:02.312Z,49.80
2023-05-10T19:28:31.679Z,49.80
2023-05-10T19:30:59.720Z,49.90
2023-05-10T19:33:27.976Z,49.90
2023-05-10T19:35:56.527Z,49.90
2023-05-10T19:38:25.510Z,49.90
2023-05-10T19:40:58.003Z,49.90
2023-05-10T19:43:26.296Z,49.90
2023-05-10T19:45:56.105Z,49.90
2023-05-10T19:48:24.087Z,50.00
2023-05-10T19:50:52.370Z,49.90
2023-05-10T19:53:20.501Z,50.00
2023-05-10T19:55:48.505Z,50.00
2023-05-10T19:58:16.680Z,50.00
2023-05-10T20:00:44.815Z,50.00
2023-05-10T20:03:14.250Z,50.00
2023-05-10T20:05:42.274Z,50.10
2023-05-10T20:08:10.252Z,50.00
2023-05-10T20:10:38.216Z,50.00
2023-05-10T20:13:06.390Z,50.00
2023-05-10T20:15:34.521Z,50.10
2023-05-10T20:18:03.623Z,50.10
2023-05-10T20:20:33.135Z,50.10
2023-05-10T20:23:01.166Z,50.10
2023-05-10T20:25:29.193Z,50.10
2023-05-10T20:27:57.202Z,50.20
2023-05-10T20:30:25.556Z,50.20
2023-05-10T20:32:53.596Z,50.20
2023-05-10T20:35:21.760Z,50.20
2023-05-10T20:37:51.075Z,50.20
2023-05-10T20:40:19.340Z,50.30
2023-05-10T20:42:47.958Z,50.30
2023-05-10T20:45:16.306Z,50.40
2023-05-10T20:47:44.347Z,50.40
2023-05-10T20:50:12.730Z,50.50
2023-05-10T20:52:40.984Z,50.50
2023-05-10T20:55:11.395Z,50.60
2023-05-10T20:57:39.409Z,50.70
2023-05-10T21:00:09.586Z,50.60
2023-05-10T21:02:37.937Z,50.70
2023-05-10T21:05:07.150Z,50.60
2023-05-10T21:07:35.230Z,50.70
2023-05-10T21:10:03.383Z,50.70
2023-05-10T21:12:33.198Z,50.80
2023-05-10T21:15:01.265Z,50.90
2023-05-10T21:17:29.252Z,51.40
2023-05-10T21:19:57.223Z,50.90
2023-05-10T21:22:25.217Z,50.90
2023-05-10T21:24:53.265Z,50.80
2023-05-10T21:27:21.580Z,50.90
2023-05-10T21:29:50.957Z,50.90
2023-05-10T21:32:19.000Z,50.90
2023-05-10T21:34:47.038Z,50.90
2023-05-10T21:37:16.545Z,50.90
2023-05-10T21:39:44.756Z,50.90
2023-05-10T21:42:12.996Z,50.90
2023-05-10T21:44:41.212Z,50.90
2023-05-10T21:47:10.651Z,50.90
2023-05-10T21:49:38.762Z,51.00
2023-05-10T21:52:07.240Z,51.00
2023-05-10T21:54:35.372Z,51.00
2023-05-10T21:57:03.328Z,51.00
2023-05-10T21:59:31.460Z,50.90
2023-05-10T22:01:59.612Z,51.00
2023-05-10T22:04:29.120Z,51.00
2023-05-10T22:06:57.271Z,51.00
2023-05-10T22:09:25.531Z,50.90
2023-05-10T22:11:53.774Z,50.90
2023-05-10T22:14:22.858Z,50.90
2023-05-10T22:16:51.146Z,51.00
2023-05-10T22:19:19.326Z,51.00
2023-05-10T22:21:48.869Z,51.10
2023-05-10T22:24:17.057Z,51.10
2023-05-10T22:26:45.148Z,51.00
2023-05-10T22:29:13.131Z,51.00
2023-05-10T22:31:41.397Z,51.00
2023-05-10T22:34:09.398Z,51.00
2023-05-10T22:36:37.640Z,51.10
2023-05-10T22:39:06.993Z,51.10
2023-05-10T22:41:35.488Z,51.10
2023-05-10T22:44:04.875Z,51.10
2023-05-10T22:46:33.203Z,51.00
2023-05-10T22:49:01.211Z,51.00
2023-05-10T22:51:29.521Z,51.00
2023-05-10T22:53:57.498Z,51.10
2023-05-10T22:56:26.937Z,51.10
2023-05-10T22:58:55.167Z,51.20
2023-05-10T23:01:23.227Z,51.10
2023-05-10T23:03:51.620Z,51.10
2023-05-10T23:06:19.654Z,51.20
2023-05-10T23:08:48.088Z,51.20
2023-05-10T23:11:16.352Z,51.20
2023-05-10T23:13:45.711Z,51.80
2023-05-10T23:16:13.808Z,51.30
2023-05-10T23:18:41.876Z,51.20
2023-05-10T23:21:09.939Z,51.20
2023-05-10T23:23:37.951Z,51.10
2023-05-10T23:26:06.102Z,51.20
2023-05-10T23:28:34.059Z,51.20
2023-05-10T23:31:03.372Z,51.30
2023-05-10T23:33:31.348Z,51.40
2023-05-10T23:35:59.332Z,51.40
2023-05-10T23:38:27.393Z,51.40
2023-05-10T23:40:55.561Z,51.50
2023-05-10T23:43:25.283Z,51.40
2023-05-10T23:45:57.210Z,51.40
2023-05-10T23:48:27.018Z,51.60
2023-05-10T23:50:55.218Z,51.50
2023-05-10T23:53:23.473Z,51.50
2023-05-10T23:55:51.639Z,51.50
2023-05-10T23:58:19.830Z,51.60
